createdAt,value
2024-02-05T00:00:26.405Z,441.38
2024-02-05T00:01:28.763Z,447.42
2024-02-05T00:02:33.617Z,483.20
2024-02-05T00:03:35.884Z,463.42
2024-02-05T00:04:40.943Z,437.50
2024-02-05T00:05:43.137Z,450.80
2024-02-05T00:06:47.984Z,468.73
2024-02-05T00:07:51.859Z,468.50
2024-02-05T00:08:58.328Z,480.92
2024-02-05T00:10:06.862Z,465.60
2024-02-05T00:11:11.660Z,478.98
2024-02-05T00:12:13.919Z,471.60
2024-02-05T00:13:18.790Z,469.98
2024-02-05T00:14:20.975Z,486.63
2024-02-05T00:15:25.718Z,411.85
2024-02-05T00:16:27.844Z,474.00
2024-02-05T00:17:30.046Z,472.83
2024-02-05T00:18:35.422Z,471.60
2024-02-05T00:19:37.837Z,469.40
2024-02-05T00:20:42.635Z,481.75
2024-02-05T00:21:44.765Z,485.70
2024-02-05T00:22:49.513Z,477.92
2024-02-05T00:23:51.787Z,496.08
2024-02-05T00:24:56.643Z,492.55
2024-02-05T00:26:01.749Z,510.83
2024-02-05T00:27:06.846Z,479.45
2024-02-05T00:28:09.297Z,500.45
2024-02-05T00:29:14.186Z,516.05
2024-02-05T00:30:17.041Z,491.08
2024-02-05T00:31:21.830Z,508.70
2024-02-05T00:32:24.052Z,496.90
2024-02-05T00:33:29.031Z,530.75
2024-02-05T00:34:32.049Z,535.35
2024-02-05T00:35:36.920Z,535.03
2024-02-05T00:36:39.757Z,547.35
2024-02-05T00:37:44.508Z,554.65
2024-02-05T00:38:46.626Z,546.90
2024-02-05T00:39:51.473Z,562.00
2024-02-05T00:40:54.928Z,532.25
2024-02-05T00:42:02.249Z,490.35
2024-02-05T00:43:05.189Z,546.78
2024-02-05T00:44:09.957Z,556.47
2024-02-05T00:45:13.378Z,560.85
2024-02-05T00:46:24.886Z,593.30
2024-02-05T00:48:33.796Z,544.05
2024-02-05T00:49:36.244Z,577.35
2024-02-05T00:50:42.944Z,591.60
2024-02-05T00:51:45.400Z,576.15
2024-02-05T00:52:50.249Z,589.65
2024-02-05T00:53:52.455Z,546.22
2024-02-05T00:54:57.341Z,577.03
2024-02-05T00:55:59.626Z,544.15
2024-02-05T00:57:07.430Z,521.17
2024-02-05T00:58:09.698Z,546.17
2024-02-05T00:59:14.928Z,561.90
2024-02-05T01:00:19.603Z,552.10
2024-02-05T01:01:25.138Z,645.92
2024-02-05T01:02:28.168Z,724.75
2024-02-05T01:03:33.018Z,738.58
2024-02-05T01:04:35.740Z,741.10
2024-02-05T01:05:40.955Z,740.15
2024-02-05T01:06:43.637Z,852.10
2024-02-05T01:07:46.216Z,755.92
2024-02-05T01:08:51.681Z,908.03
2024-02-05T01:09:53.986Z,885.97
2024-02-05T01:10:58.841Z,879.22
2024-02-05T01:12:04.695Z,879.97
2024-02-05T01:13:09.652Z,848.80
2024-02-05T01:14:11.874Z,855.42
2024-02-05T01:15:17.081Z,1001.92
2024-02-05T01:16:19.441Z,865.33
2024-02-05T01:17:24.279Z,991.97
2024-02-05T01:18:26.625Z,849.65
2024-02-05T01:19:29.008Z,868.10
2024-02-05T01:20:34.017Z,866.35
2024-02-05T01:21:36.530Z,832.53
2024-02-05T01:22:39.538Z,835.60
2024-02-05T01:23:44.340Z,919.00
2024-02-05T01:24:46.794Z,828.50
2024-02-05T01:25:51.715Z,824.85
2024-02-05T01:26:53.942Z,870.58
2024-02-05T01:28:01.761Z,834.75
2024-02-05T01:29:03.977Z,827.50
2024-02-05T01:30:09.657Z,903.38
2024-02-05T01:31:12.171Z,837.10
2024-02-05T01:32:17.493Z,897.17
2024-02-05T01:33:19.785Z,874.17
2024-02-05T01:34:24.847Z,882.83
2024-02-05T01:35:27.189Z,919.00
2024-02-05T01:36:32.701Z,885.53
2024-02-05T01:37:34.833Z,843.88
2024-02-05T01:38:39.625Z,944.30
2024-02-05T01:39:41.873Z,836.78
2024-02-05T01:40:46.728Z,901.10
2024-02-05T01:41:48.909Z,851.92
2024-02-05T01:42:53.710Z,850.88
2024-02-05T01:43:58.623Z,904.47
2024-02-05T01:45:03.363Z,817.85
2024-02-05T01:46:06.477Z,945.40
2024-02-05T01:47:11.660Z,807.10
2024-02-05T01:48:17.348Z,1131.72
2024-02-05T01:49:22.591Z,897.30
2024-02-05T01:50:25.220Z,836.00
2024-02-05T01:51:30.139Z,876.65
2024-02-05T01:52:34.925Z,768.67
2024-02-05T01:53:40.363Z,784.45
2024-02-05T01:54:43.562Z,779.95
2024-02-05T01:55:51.842Z,788.40
2024-02-05T01:56:56.307Z,752.08
2024-02-05T01:58:01.813Z,761.42
2024-02-05T01:59:07.893Z,758.35
2024-02-05T02:00:16.089Z,744.47
2024-02-05T02:01:18.827Z,803.25
2024-02-05T02:02:24.907Z,737.38
2024-02-05T02:03:28.226Z,737.97
2024-02-05T02:04:34.351Z,718.95
2024-02-05T02:05:37.442Z,734.72
2024-02-05T02:06:41.988Z,764.80
2024-02-05T02:07:47.231Z,831.40
2024-02-05T02:08:49.815Z,783.60
2024-02-05T02:09:54.829Z,763.58
2024-02-05T02:10:57.615Z,754.00
2024-02-05T02:12:03.579Z,761.83
2024-02-05T02:13:06.001Z,733.80
2024-02-05T02:14:13.676Z,712.88
2024-02-05T02:15:16.186Z,696.97
2024-02-05T02:16:26.033Z,704.83
2024-02-05T02:17:30.817Z,716.67
2024-02-05T02:18:38.442Z,736.78
2024-02-05T02:19:45.307Z,733.65
2024-02-05T02:20:50.928Z,709.70
2024-02-05T02:21:59.724Z,709.53
2024-02-05T02:23:10.530Z,712.00
2024-02-05T02:24:15.635Z,675.47
2024-02-05T02:25:20.695Z,721.83
2024-02-05T02:26:22.954Z,747.45
2024-02-05T02:27:27.897Z,730.15
2024-02-05T02:28:30.166Z,718.97
2024-02-05T02:29:34.984Z,826.83
2024-02-05T02:30:41.040Z,748.28
2024-02-05T02:31:49.149Z,711.10
2024-02-05T02:33:00.678Z,694.78
2024-02-05T02:35:26.034Z,488.55
2024-02-05T02:37:41.597Z,582.65
2024-02-05T02:38:50.296Z,153.77
2024-02-05T02:40:00.295Z,159.60
2024-02-05T02:41:08.929Z,156.23
2024-02-05T02:42:12.447Z,153.35
2024-02-05T02:43:18.850Z,180.65
2024-02-05T02:44:22.270Z,189.45
2024-02-05T02:45:27.917Z,469.48
2024-02-05T02:46:30.608Z,503.80
2024-02-05T02:47:35.416Z,513.75
2024-02-05T02:48:37.784Z,527.92
2024-02-05T02:49:42.756Z,561.28
2024-02-05T02:50:44.892Z,559.38
2024-02-05T02:51:49.716Z,591.00
2024-02-05T02:52:51.915Z,622.22
2024-02-05T02:53:56.688Z,599.58
2024-02-05T02:55:01.767Z,578.30
2024-02-05T02:56:08.229Z,587.95
2024-02-05T02:57:10.352Z,629.85
2024-02-05T02:58:15.422Z,614.33
2024-02-05T02:59:17.959Z,611.22
2024-02-05T03:00:23.208Z,646.22
2024-02-05T03:01:25.636Z,668.47
2024-02-05T03:02:30.432Z,537.97
2024-02-05T03:03:33.135Z,501.60
2024-02-05T03:04:37.955Z,421.42
2024-02-05T03:05:40.253Z,477.05
2024-02-05T03:06:45.110Z,365.80
2024-02-05T03:07:47.500Z,385.17
2024-02-05T03:08:52.306Z,248.40
2024-02-05T03:09:55.214Z,265.63
2024-02-05T03:11:02.895Z,252.82
2024-02-05T03:12:05.888Z,271.95
2024-02-05T03:13:11.344Z,209.77
2024-02-05T03:14:13.510Z,282.33
2024-02-05T03:15:18.293Z,299.83
2024-02-05T03:16:20.514Z,262.10
2024-02-05T03:17:25.331Z,459.73
2024-02-05T03:18:27.540Z,537.78
2024-02-05T03:19:33.355Z,571.70
2024-02-05T03:20:37.349Z,663.88
2024-02-05T03:21:42.191Z,767.17
2024-02-05T03:22:50.152Z,754.45
2024-02-05T03:23:57.964Z,837.00
2024-02-05T03:25:00.178Z,802.05
2024-02-05T03:26:07.994Z,818.72
2024-02-05T03:27:10.769Z,904.70
2024-02-05T03:28:15.637Z,839.88
2024-02-05T03:29:17.847Z,780.90
2024-02-05T03:30:20.029Z,854.63
2024-02-05T03:31:24.896Z,773.20
2024-02-05T03:32:27.206Z,865.72
2024-02-05T03:33:31.953Z,806.13
2024-02-05T03:34:34.350Z,842.30
2024-02-05T03:35:37.722Z,841.90
2024-02-05T03:36:42.592Z,820.63
2024-02-05T03:37:44.783Z,804.92
2024-02-05T03:38:49.472Z,836.92
2024-02-05T03:39:51.736Z,810.28
2024-02-05T03:40:56.508Z,825.20
2024-02-05T03:42:01.298Z,803.55
2024-02-05T03:43:06.229Z,775.67
2024-02-05T03:44:08.441Z,865.10
2024-02-05T03:45:13.398Z,842.20
2024-02-05T03:46:15.662Z,1028.30
2024-02-05T03:47:20.547Z,776.65
2024-02-05T03:48:22.897Z,816.33
2024-02-05T03:49:27.684Z,811.90
2024-02-05T03:50:32.192Z,857.33
2024-02-05T03:51:38.195Z,773.28
2024-02-05T03:52:41.397Z,723.25
2024-02-05T03:53:48.196Z,675.60
2024-02-05T03:54:50.371Z,693.72
2024-02-05T03:55:55.164Z,707.25
2024-02-05T03:56:59.970Z,689.97
2024-02-05T03:58:07.939Z,152.25
2024-02-05T03:59:11.392Z,138.68
2024-02-05T04:00:17.148Z,179.02
2024-02-05T04:01:19.447Z,281.33
2024-02-05T04:02:26.678Z,323.73
2024-02-05T04:03:28.913Z,335.13
2024-02-05T04:04:33.884Z,365.30
2024-02-05T04:05:36.264Z,328.88
2024-02-05T04:06:41.115Z,372.00
2024-02-05T04:07:43.640Z,406.75
2024-02-05T04:08:48.937Z,442.33
2024-02-05T04:09:51.039Z,493.13
2024-02-05T04:10:55.902Z,515.55
2024-02-05T04:11:58.051Z,580.80
2024-02-05T04:13:02.853Z,867.50
2024-02-05T04:14:11.479Z,678.47
2024-02-05T04:15:16.555Z,667.30
2024-02-05T04:16:18.779Z,658.08
2024-02-05T04:17:23.550Z,683.22
2024-02-05T04:18:25.711Z,672.38
2024-02-05T04:19:30.582Z,677.72
2024-02-05T04:20:32.772Z,700.95
2024-02-05T04:21:37.844Z,707.63
2024-02-05T04:22:40.051Z,703.33
2024-02-05T04:23:44.734Z,818.28
2024-02-05T04:24:46.840Z,669.72
2024-02-05T04:25:51.597Z,221.82
2024-02-05T04:26:53.742Z,370.13
2024-02-05T04:27:58.450Z,273.05
2024-02-05T04:29:00.885Z,449.95
2024-02-05T04:30:09.858Z,485.23
2024-02-05T04:31:14.172Z,465.50
2024-02-05T04:32:19.073Z,469.30
2024-02-05T04:33:21.247Z,532.20
2024-02-05T04:34:23.471Z,497.30
2024-02-05T04:35:28.820Z,509.27
2024-02-05T04:36:33.529Z,580.75
2024-02-05T04:37:35.754Z,547.47
2024-02-05T04:38:40.528Z,576.35
2024-02-05T04:39:42.594Z,635.25
2024-02-05T04:40:47.461Z,582.45
2024-02-05T04:41:49.999Z,544.45
2024-02-05T04:42:54.741Z,643.10
2024-02-05T04:43:57.148Z,562.08
2024-02-05T04:45:01.839Z,573.45
2024-02-05T04:46:08.951Z,620.47
2024-02-05T04:47:13.749Z,560.92
2024-02-05T04:48:21.394Z,548.78
2024-02-05T04:49:26.456Z,624.38
2024-02-05T04:50:28.779Z,577.05
2024-02-05T04:51:33.661Z,586.25
2024-02-05T04:52:35.831Z,678.58
2024-02-05T04:53:40.594Z,695.88
2024-02-05T04:54:44.899Z,714.80
2024-02-05T04:55:50.131Z,713.00
2024-02-05T04:56:52.312Z,803.97
2024-02-05T04:57:57.119Z,795.75
2024-02-05T04:58:59.330Z,848.03
2024-02-05T05:00:05.686Z,832.03
2024-02-05T05:01:12.928Z,821.17
2024-02-05T05:02:18.138Z,858.28
2024-02-05T05:03:20.369Z,848.42
2024-02-05T05:04:26.357Z,865.30
2024-02-05T05:05:29.013Z,886.50
2024-02-05T05:06:33.743Z,908.72
2024-02-05T05:07:35.958Z,920.92
2024-02-05T05:08:40.692Z,934.45
2024-02-05T05:09:42.866Z,897.92
2024-02-05T05:10:47.959Z,890.13
2024-02-05T05:11:50.074Z,916.30
2024-02-05T05:12:52.410Z,921.05
2024-02-05T05:13:57.335Z,954.67
2024-02-05T05:14:59.485Z,917.00
2024-02-05T05:16:05.833Z,946.58
2024-02-05T05:17:10.760Z,862.30
2024-02-05T05:18:15.803Z,854.40
2024-02-05T05:19:19.172Z,870.55
2024-02-05T05:20:24.079Z,839.58
2024-02-05T05:21:28.310Z,878.13
2024-02-05T05:22:33.285Z,893.20
2024-02-05T05:23:35.428Z,865.40
2024-02-05T05:24:40.528Z,1005.90
2024-02-05T05:25:43.982Z,901.60
2024-02-05T05:26:48.715Z,941.92
2024-02-05T05:27:51.043Z,912.65
2024-02-05T05:28:56.237Z,857.20
2024-02-05T05:29:58.429Z,866.00
2024-02-05T05:31:03.983Z,877.78
2024-02-05T05:32:06.999Z,841.03
2024-02-05T05:33:14.390Z,855.80
2024-02-05T05:34:16.762Z,860.20
2024-02-05T05:35:21.731Z,862.05
2024-02-05T05:36:24.502Z,868.15
2024-02-05T05:37:29.371Z,892.22
2024-02-05T05:38:31.675Z,872.80
2024-02-05T05:39:36.703Z,896.08
2024-02-05T05:40:39.118Z,916.75
2024-02-05T05:41:43.866Z,956.17
2024-02-05T05:42:46.117Z,928.72
2024-02-05T05:43:53.633Z,959.90
2024-02-05T05:44:55.845Z,902.38
2024-02-05T05:46:01.179Z,884.22
2024-02-05T05:47:03.958Z,869.08
2024-02-05T05:48:11.545Z,868.47
2024-02-05T05:49:16.675Z,845.92
2024-02-05T05:50:21.693Z,856.17
2024-02-05T05:51:23.911Z,868.88
2024-02-05T05:52:26.938Z,873.60
2024-02-05T05:53:31.869Z,853.95
2024-02-05T05:54:34.087Z,904.38
2024-02-05T05:55:38.971Z,882.70
2024-02-05T05:56:41.098Z,913.92
2024-02-05T05:57:45.799Z,915.65
2024-02-05T05:58:48.319Z,913.97
2024-02-05T05:59:53.223Z,879.17
2024-02-05T06:00:55.480Z,874.78
2024-02-05T06:02:00.469Z,844.28
2024-02-05T06:03:07.669Z,864.25
2024-02-05T06:04:09.883Z,894.03
2024-02-05T06:05:17.498Z,856.70
2024-02-05T06:06:19.662Z,859.03
2024-02-05T06:07:24.645Z,847.00
2024-02-05T06:08:26.808Z,856.22
2024-02-05T06:09:32.094Z,875.17
2024-02-05T06:10:34.860Z,928.60
2024-02-05T06:11:39.725Z,859.92
2024-02-05T06:12:42.369Z,926.92
2024-02-05T06:13:47.258Z,1002.00
2024-02-05T06:14:49.371Z,918.55
2024-02-05T06:15:54.152Z,933.08
2024-02-05T06:16:56.456Z,887.88
2024-02-05T06:18:01.233Z,869.17
2024-02-05T06:19:03.502Z,877.25
2024-02-05T06:20:12.923Z,849.90
2024-02-05T06:22:24.821Z,832.05
2024-02-05T06:23:27.744Z,834.40
2024-02-05T06:24:33.520Z,868.78
2024-02-05T06:25:35.674Z,868.38
2024-02-05T06:26:40.439Z,879.42
2024-02-05T06:27:42.745Z,980.67
2024-02-05T06:28:47.535Z,911.35
2024-02-05T06:29:49.781Z,919.08
2024-02-05T06:30:52.179Z,917.38
2024-02-05T06:31:56.943Z,911.55
2024-02-05T06:32:59.105Z,876.40
2024-02-05T06:34:08.578Z,880.13
2024-02-05T06:35:12.636Z,879.65
2024-02-05T06:36:15.077Z,856.10
2024-02-05T06:37:23.050Z,863.47
2024-02-05T06:38:25.315Z,870.88
2024-02-05T06:39:30.240Z,894.85
2024-02-05T06:40:32.466Z,908.42
2024-02-05T06:41:39.054Z,875.90
2024-02-05T06:42:41.230Z,882.58
2024-02-05T06:43:47.651Z,891.47
2024-02-05T06:44:50.444Z,900.80
2024-02-05T06:45:55.461Z,900.70
2024-02-05T06:46:57.617Z,868.28
2024-02-05T06:48:02.496Z,858.03
2024-02-05T06:49:04.801Z,859.22
2024-02-05T06:50:13.154Z,861.25
2024-02-05T06:51:18.365Z,838.38
2024-02-05T06:52:25.918Z,837.13
2024-02-05T06:53:28.440Z,844.00
2024-02-05T06:54:34.293Z,881.97
2024-02-05T06:55:36.693Z,858.33
2024-02-05T06:56:41.914Z,874.05
2024-02-05T06:57:44.047Z,910.85
2024-02-05T06:58:48.779Z,905.97
2024-02-05T06:59:51.454Z,886.15
2024-02-05T07:00:56.227Z,925.13
2024-02-05T07:01:58.733Z,897.05
2024-02-05T07:03:04.058Z,860.45
2024-02-05T07:04:06.545Z,928.15
2024-02-05T07:05:13.444Z,864.22
2024-02-05T07:06:15.646Z,868.03
2024-02-05T07:07:20.910Z,907.47
2024-02-05T07:08:25.725Z,878.72
2024-02-05T07:09:30.532Z,857.95
2024-02-05T07:10:32.986Z,893.25
2024-02-05T07:11:39.038Z,876.33
2024-02-05T07:12:41.658Z,880.50
2024-02-05T07:13:46.340Z,970.47
2024-02-05T07:14:48.524Z,951.08
2024-02-05T07:15:53.270Z,986.60
2024-02-05T07:16:55.480Z,924.72
2024-02-05T07:18:00.228Z,908.88
2024-02-05T07:19:02.520Z,890.50
2024-02-05T07:20:08.709Z,922.70
2024-02-05T07:21:11.043Z,878.03
2024-02-05T07:22:17.013Z,865.63
2024-02-05T07:23:19.225Z,872.65
2024-02-05T07:24:26.632Z,873.55
2024-02-05T07:25:30.247Z,861.38
2024-02-05T07:26:39.785Z,875.17
2024-02-05T07:27:42.067Z,870.30
2024-02-05T07:28:46.809Z,885.22
2024-02-05T07:29:48.953Z,939.78
2024-02-05T07:30:53.872Z,963.20
2024-02-05T07:31:56.228Z,926.67
2024-02-05T07:33:00.917Z,927.90
2024-02-05T07:34:03.117Z,972.40
2024-02-05T07:35:08.911Z,901.33
2024-02-05T07:36:11.502Z,911.08
2024-02-05T07:37:16.621Z,1051.43
2024-02-05T07:38:20.272Z,985.08
2024-02-05T07:39:27.946Z,887.45
2024-02-05T07:40:30.144Z,913.30
2024-02-05T07:41:34.876Z,910.40
2024-02-05T07:42:37.051Z,884.63
2024-02-05T07:43:42.818Z,905.58
2024-02-05T07:44:45.240Z,920.33
2024-02-05T07:45:50.325Z,873.08
2024-02-05T07:46:52.980Z,932.08
2024-02-05T07:47:58.088Z,958.53
2024-02-05T07:49:00.339Z,910.25
2024-02-05T07:50:05.231Z,889.63
2024-02-05T07:51:07.434Z,890.45
2024-02-05T07:52:12.409Z,839.15
2024-02-05T07:53:14.876Z,829.63
2024-02-05T07:54:20.603Z,855.70
2024-02-05T07:55:25.342Z,857.83
2024-02-05T07:56:29.987Z,859.97
2024-02-05T07:57:32.262Z,867.08
2024-02-05T07:58:37.129Z,855.45
2024-02-05T07:59:39.272Z,853.03
2024-02-05T08:00:46.664Z,850.38
2024-02-05T08:01:49.045Z,891.70
2024-02-05T08:02:53.817Z,906.50
2024-02-05T08:03:56.170Z,913.97
2024-02-05T08:04:58.483Z,946.08
2024-02-05T08:06:07.922Z,927.75
2024-02-05T08:07:10.272Z,182.82
2024-02-05T08:08:15.086Z,165.65
2024-02-05T08:09:17.506Z,176.20
2024-02-05T08:10:22.526Z,161.25
2024-02-05T08:11:27.454Z,164.07
2024-02-05T08:12:32.147Z,184.00
2024-02-05T08:13:34.313Z,161.40
2024-02-05T08:14:39.203Z,193.63
2024-02-05T08:15:42.115Z,180.27
2024-02-05T08:16:47.098Z,209.48
2024-02-05T08:17:49.355Z,172.18
2024-02-05T08:18:54.832Z,252.85
2024-02-05T08:19:57.050Z,299.70
2024-02-05T08:21:01.851Z,196.57
2024-02-05T08:22:04.215Z,178.40
2024-02-05T08:23:09.082Z,255.75
2024-02-05T08:24:11.254Z,123.63
2024-02-05T08:25:16.206Z,134.40
2024-02-05T08:26:18.792Z,124.30
2024-02-05T08:27:26.102Z,146.88
2024-02-05T08:28:28.252Z,202.98
2024-02-05T08:29:32.977Z,173.15
2024-02-05T08:30:35.266Z,316.33
2024-02-05T08:31:40.962Z,169.23
2024-02-05T08:32:43.196Z,114.10
2024-02-05T08:33:47.990Z,172.68
2024-02-05T08:34:50.245Z,155.65
2024-02-05T08:35:55.165Z,164.93
2024-02-05T08:36:57.362Z,244.27
2024-02-05T08:37:59.638Z,183.75
2024-02-05T08:39:04.548Z,169.77
2024-02-05T08:40:08.537Z,213.25
2024-02-05T08:41:13.945Z,106.75
2024-02-05T08:42:21.583Z,124.32
2024-02-05T08:43:36.504Z,170.68
2024-02-05T08:44:38.664Z,175.77
2024-02-05T08:45:43.588Z,150.90
2024-02-05T08:46:45.789Z,173.18
2024-02-05T08:47:50.949Z,169.13
2024-02-05T08:48:53.215Z,177.18
2024-02-05T08:49:58.076Z,211.75
2024-02-05T08:51:00.238Z,212.52
2024-02-05T08:52:05.123Z,212.45
2024-02-05T08:53:08.276Z,170.65
2024-02-05T08:54:14.114Z,162.88
2024-02-05T08:55:16.279Z,106.53
2024-02-05T08:56:21.051Z,146.40
2024-02-05T08:57:25.256Z,134.80
2024-02-05T08:58:27.993Z,114.78
2024-02-05T08:59:35.488Z,190.00
2024-02-05T09:00:37.584Z,159.32
2024-02-05T09:01:43.725Z,112.22
2024-02-05T09:02:46.650Z,152.07
2024-02-05T09:03:51.547Z,248.55
2024-02-05T09:04:53.741Z,129.38
2024-02-05T09:06:00.189Z,192.27
2024-02-05T09:07:02.664Z,213.95
2024-02-05T09:08:08.453Z,185.68
2024-02-05T09:09:11.101Z,176.27
2024-02-05T09:10:15.822Z,173.73
2024-02-05T09:11:20.136Z,250.48
2024-02-05T09:12:24.911Z,303.67
2024-02-05T09:13:27.131Z,324.52
2024-02-05T09:14:31.935Z,342.05
2024-02-05T09:15:37.259Z,433.40
2024-02-05T09:16:41.938Z,612.35
2024-02-05T09:17:44.113Z,578.63
2024-02-05T09:18:48.978Z,548.13
2024-02-05T09:19:52.195Z,594.75
2024-02-05T09:20:56.994Z,651.58
2024-02-05T09:21:59.277Z,688.95
2024-02-05T09:23:03.987Z,699.05
2024-02-05T09:24:06.765Z,682.38
2024-02-05T09:25:11.564Z,670.75
2024-02-05T09:26:13.712Z,644.75
2024-02-05T09:27:18.670Z,660.00
2024-02-05T09:28:22.369Z,607.78
2024-02-05T09:29:27.355Z,670.97
2024-02-05T09:30:29.460Z,714.45
2024-02-05T09:31:36.796Z,719.78
2024-02-05T09:32:39.138Z,774.65
2024-02-05T09:33:43.923Z,789.47
2024-02-05T09:34:46.137Z,857.47
2024-02-05T09:35:51.007Z,876.25
2024-02-05T09:36:53.221Z,790.92
2024-02-05T09:37:57.995Z,809.53
2024-02-05T09:39:00.153Z,846.08
2024-02-05T09:40:04.906Z,918.08
2024-02-05T09:41:08.326Z,867.97
2024-02-05T09:42:15.272Z,919.20
2024-02-05T09:43:20.110Z,872.30
2024-02-05T09:44:30.519Z,915.60
2024-02-05T09:45:36.660Z,892.72
2024-02-05T09:46:47.748Z,877.53
2024-02-05T09:47:51.916Z,868.38
2024-02-05T09:48:58.540Z,859.30
2024-02-05T09:50:02.369Z,920.60
2024-02-05T09:51:08.232Z,898.60
2024-02-05T09:52:12.536Z,913.65
2024-02-05T09:53:18.421Z,938.58
2024-02-05T09:54:22.830Z,862.03
2024-02-05T09:55:29.564Z,892.67
2024-02-05T09:56:35.687Z,977.80
2024-02-05T09:57:41.303Z,859.00
2024-02-05T09:58:43.574Z,238.52
2024-02-05T09:59:45.797Z,370.77
2024-02-05T10:00:50.674Z,313.42
2024-02-05T10:01:57.088Z,371.23
2024-02-05T10:03:03.395Z,425.98
2024-02-05T10:04:09.361Z,318.92
2024-02-05T10:05:18.762Z,752.13
2024-02-05T10:06:24.232Z,875.42
2024-02-05T10:07:30.744Z,932.67
2024-02-05T10:08:33.602Z,911.45
2024-02-05T10:09:40.437Z,894.33
2024-02-05T10:10:45.641Z,1018.00
2024-02-05T10:11:53.561Z,906.17
2024-02-05T10:12:57.879Z,857.00
2024-02-05T10:14:03.271Z,883.20
2024-02-05T10:15:07.054Z,863.58
2024-02-05T10:16:09.402Z,802.83
2024-02-05T10:17:17.001Z,740.85
2024-02-05T10:18:19.252Z,131.95
2024-02-05T10:19:22.740Z,266.05
2024-02-05T10:20:34.455Z,732.70
2024-02-05T10:21:36.980Z,118.95
2024-02-05T10:22:48.116Z,169.45
2024-02-05T10:23:53.916Z,183.57
2024-02-05T10:25:01.129Z,131.00
2024-02-05T10:26:04.338Z,255.35
2024-02-05T10:27:09.346Z,227.77
2024-02-05T10:28:11.557Z,219.68
2024-02-05T10:29:16.278Z,267.33
2024-02-05T10:30:18.802Z,383.25
2024-02-05T10:31:23.674Z,154.55
2024-02-05T10:32:28.904Z,233.75
2024-02-05T10:33:34.108Z,184.60
2024-02-05T10:34:36.630Z,176.23
2024-02-05T10:35:42.882Z,277.45
2024-02-05T10:36:45.116Z,227.98
2024-02-05T10:37:49.865Z,449.48
2024-02-05T10:38:52.638Z,534.40
2024-02-05T10:40:07.025Z,597.60
2024-02-05T10:41:09.644Z,606.70
2024-02-05T10:42:16.568Z,609.60
2024-02-05T10:43:19.089Z,589.13
2024-02-05T10:44:33.939Z,465.23
2024-02-05T10:45:43.163Z,511.48
2024-02-05T10:46:51.975Z,514.20
2024-02-05T10:47:58.089Z,614.42
2024-02-05T10:49:04.198Z,598.22
2024-02-05T10:50:11.754Z,570.35
2024-02-05T10:51:18.284Z,600.78
2024-02-05T10:52:22.329Z,555.72
2024-02-05T10:53:30.440Z,486.58
2024-02-05T10:54:34.310Z,372.10
2024-02-05T10:55:42.184Z,478.25
2024-02-05T10:56:45.187Z,613.95
2024-02-05T10:57:50.949Z,230.88
2024-02-05T10:58:56.538Z,672.60
2024-02-05T11:00:03.124Z,748.78
2024-02-05T11:01:07.100Z,492.25
2024-02-05T11:02:18.771Z,513.65
2024-02-05T11:04:33.769Z,185.13
2024-02-05T11:05:37.389Z,600.30
2024-02-05T11:06:47.054Z,759.38
2024-02-05T11:07:53.955Z,752.92
2024-02-05T11:08:59.004Z,754.35
2024-02-05T11:10:05.663Z,600.05
2024-02-05T11:11:16.200Z,786.10
2024-02-05T11:12:22.955Z,709.30
2024-02-05T11:13:33.384Z,690.08
2024-02-05T11:14:37.660Z,711.80
2024-02-05T11:15:44.385Z,725.17
2024-02-05T11:16:47.777Z,763.17
2024-02-05T11:17:55.184Z,770.70
2024-02-05T11:19:03.178Z,720.55
2024-02-05T11:20:13.995Z,704.20
2024-02-05T11:21:20.052Z,734.30
2024-02-05T11:22:27.920Z,785.05
2024-02-05T11:23:33.511Z,735.90
2024-02-05T11:24:36.275Z,698.40
2024-02-05T11:25:41.111Z,734.15
2024-02-05T11:26:43.868Z,773.65
2024-02-05T11:27:48.789Z,711.00
2024-02-05T11:28:51.300Z,795.58
2024-02-05T11:29:56.110Z,880.63
2024-02-05T11:31:02.465Z,828.53
2024-02-05T11:32:07.649Z,684.60
2024-02-05T11:33:11.205Z,807.92
2024-02-05T11:34:20.714Z,804.60
2024-02-05T11:35:28.944Z,919.53
2024-02-05T11:36:34.021Z,279.13
2024-02-05T11:37:37.794Z,498.60
2024-02-05T11:38:43.977Z,788.40
2024-02-05T11:39:46.847Z,942.63
2024-02-05T11:40:53.099Z,961.00
2024-02-05T11:41:55.255Z,963.53
2024-02-05T11:43:11.423Z,1014.05
2024-02-05T11:44:15.541Z,863.95
2024-02-05T11:45:20.646Z,641.40
2024-02-05T11:46:36.734Z,791.83
2024-02-05T11:47:41.745Z,971.28
2024-02-05T11:48:44.152Z,957.72
2024-02-05T11:49:53.858Z,958.50
2024-02-05T11:51:00.098Z,969.03
2024-02-05T11:52:05.454Z,957.13
2024-02-05T11:53:07.612Z,961.78
2024-02-05T11:54:10.053Z,1053.63
2024-02-05T11:55:19.682Z,756.70
2024-02-05T11:56:21.947Z,522.60
2024-02-05T11:57:28.201Z,796.80
2024-02-05T11:58:32.066Z,1034.10
2024-02-05T11:59:37.113Z,960.58
2024-02-05T12:00:39.271Z,921.72
2024-02-05T12:01:44.487Z,922.55
2024-02-05T12:02:47.006Z,987.33
2024-02-05T12:03:50.637Z,966.63
2024-02-05T12:04:59.801Z,1018.58
2024-02-05T12:06:02.053Z,914.47
2024-02-05T12:07:08.178Z,1003.97
2024-02-05T12:08:10.800Z,968.20
2024-02-05T12:09:16.888Z,982.75
2024-02-05T12:10:19.255Z,1001.55
2024-02-05T12:11:25.289Z,973.03
2024-02-05T12:12:27.642Z,1004.38
2024-02-05T12:13:35.559Z,955.72
2024-02-05T12:14:38.039Z,904.35
2024-02-05T12:15:43.924Z,898.88
2024-02-05T12:16:46.175Z,900.95
2024-02-05T12:17:48.506Z,904.85
2024-02-05T12:19:08.723Z,913.60
2024-02-05T12:20:20.905Z,894.72
2024-02-05T12:21:26.723Z,881.45
2024-02-05T12:22:29.329Z,916.58
2024-02-05T12:23:31.603Z,942.50
2024-02-05T12:24:36.417Z,942.90
2024-02-05T12:25:42.613Z,1035.32
2024-02-05T12:26:49.430Z,1032.22
2024-02-05T12:27:52.686Z,1039.22
2024-02-05T12:28:58.782Z,996.95
2024-02-05T12:30:06.519Z,1070.22
2024-02-05T12:31:11.538Z,1087.15
2024-02-05T12:32:13.717Z,1055.43
2024-02-05T12:33:16.929Z,1069.15
2024-02-05T12:34:22.572Z,1083.95
2024-02-05T12:35:27.933Z,1097.80
2024-02-05T12:36:38.084Z,1121.88
2024-02-05T12:37:41.192Z,1023.00
2024-02-05T12:38:45.999Z,1006.17
2024-02-05T12:39:52.857Z,962.50
2024-02-05T12:40:59.223Z,942.13
2024-02-05T12:42:01.634Z,953.63
2024-02-05T12:43:03.893Z,943.95
2024-02-05T12:44:16.298Z,965.50
2024-02-05T12:45:22.393Z,982.90
2024-02-05T12:46:27.372Z,1018.00
2024-02-05T12:47:29.699Z,985.25
2024-02-05T12:48:35.930Z,974.42
2024-02-05T12:49:38.720Z,870.40
2024-02-05T12:50:46.153Z,884.00
2024-02-05T12:51:48.820Z,848.38
2024-02-05T12:52:54.646Z,864.00
2024-02-05T12:53:56.852Z,873.78
2024-02-05T12:55:02.591Z,869.63
2024-02-05T12:56:05.805Z,925.65
2024-02-05T12:57:11.283Z,894.35
2024-02-05T12:58:13.454Z,905.58
2024-02-05T12:59:19.381Z,905.95
2024-02-05T13:00:22.570Z,961.58
2024-02-05T13:01:27.494Z,929.30
2024-02-05T13:02:30.884Z,934.17
2024-02-05T13:03:38.741Z,955.33
2024-02-05T13:04:43.940Z,901.15
2024-02-05T13:05:52.686Z,917.00
2024-02-05T13:07:02.543Z,923.10
2024-02-05T13:08:10.659Z,904.20
2024-02-05T13:09:13.311Z,940.80
2024-02-05T13:10:18.554Z,924.45
2024-02-05T13:11:20.819Z,991.40
2024-02-05T13:12:25.633Z,1060.43
2024-02-05T13:13:28.989Z,949.88
2024-02-05T13:14:34.544Z,950.58
2024-02-05T13:15:36.839Z,954.85
2024-02-05T13:16:42.382Z,957.38
2024-02-05T13:17:45.810Z,946.25
2024-02-05T13:18:50.753Z,978.13
2024-02-05T13:19:53.385Z,931.63
2024-02-05T13:21:00.761Z,950.65
2024-02-05T13:22:06.923Z,951.55
2024-02-05T13:23:13.159Z,955.40
2024-02-05T13:24:16.103Z,1001.33
2024-02-05T13:25:22.219Z,992.80
2024-02-05T13:26:24.650Z,1052.75
2024-02-05T13:27:29.364Z,1005.53
2024-02-05T13:28:32.274Z,1082.30
2024-02-05T13:29:37.301Z,1030.35
2024-02-05T13:30:40.445Z,1043.75